Time;durP1;ratioP1;P1;durP2;ratioP2;P2;SDS_P1;SDS_P2;PMS_P1;PMS_P2;Temp;Humidity;BMP_temperature;BMP_pressure;BME280_temperature;BME280_humidity;BME280_pressure;Samples;Min_cycle;Max_cycle;Signal;HPM_P1;HPM_P2
2021/07/02 00:00:07;;;;;;;4.72;2.83;;;19.90;67.00;;;;;;5035046;28;20026;-43
2021/07/02 00:02:35;;;;;;;6.22;3.45;;;19.90;66.90;;;;;;5034600;28;20026;-44
2021/07/02 00:05:01;;;;;;;4.32;2.88;;;19.90;66.90;;;;;;5033862;28;20085;-42
2021/07/02 00:07:26;;;;;;;3.50;2.90;;;20.00;67.00;;;;;;5033721;28;20036;-42
2021/07/02 00:09:52;;;;;;;4.10;3.13;;;19.90;67.00;;;;;;5033459;28;20021;-43
2021/07/02 00:12:18;;;;;;;4.70;3.08;;;19.90;66.90;;;;;;5033458;28;20083;-43
2021/07/02 00:14:43;;;;;;;4.38;3.30;;;19.60;66.80;;;;;;5033423;28;20427;-42
2021/07/02 00:17:09;;;;;;;4.88;2.90;;;19.80;66.90;;;;;;5033383;28;20041;-43
2021/07/02 00:19:34;;;;;;;5.72;3.67;;;20.00;67.00;;;;;;5033681;28;20029;-44
2021/07/02 00:22:00;;;;;;;4.78;3.35;;;19.90;66.90;;;;;;5033386;28;20072;-43
2021/07/02 00:24:26;;;;;;;4.55;3.28;;;19.90;66.90;;;;;;5033671;28;20039;-44
2021/07/02 00:26:52;;;;;;;3.22;2.92;;;19.90;67.00;;;;;;5033241;28;20041;-44
2021/07/02 00:39:42;;;;;;;4.18;2.83;;;19.90;67.00;;;;;;5033191;28;20052;-43
2021/07/02 00:42:07;;;;;;;4.03;3.08;;;19.90;67.10;;;;;;5033106;28;20101;-43
2021/07/02 00:44:45;;;;;;;7.25;3.15;;;19.60;66.90;;;;;;5033051;28;20503;-43
2021/07/02 00:47:12;;;;;;;3.65;2.95;;;19.90;67.10;;;;;;5033279;28;20037;-43
2021/07/02 00:49:38;;;;;;;3.33;3.03;;;19.90;67.20;;;;;;5033350;28;20029;-44
2021/07/02 00:52:05;;;;;;;3.22;2.90;;;19.90;67.10;;;;;;5032979;28;20026;-43
2021/07/02 00:54:36;;;;;;;4.15;2.92;;;19.80;67.10;;;;;;5033203;28;20029;-47
2021/07/02 00:57:03;;;;;;;4.15;3.00;;;20.00;67.20;;;;;;5033014;28;20354;-42
2021/07/02 00:59:29;;;;;;;7.38;3.40;;;19.90;67.00;;;;;;5033040;28;20017;-43
2021/07/02 01:01:56;;;;;;;5.18;3.22;;;19.90;67.20;;;;;;5032990;28;20025;-44
2021/07/02 01:04:23;;;;;;;3.87;2.87;;;19.90;67.10;;;;;;4990156;28;1212326;-42
2021/07/02 01:06:51;;;;;;;3.63;3.10;;;19.70;84.30;;;;;;5033293;28;20782;-45
2021/07/02 01:09:16;;;;;;;4.10;2.97;;;19.90;67.20;;;;;;5033388;28;20105;-42
2021/07/02 01:11:43;;;;;;;3.97;2.55;;;19.90;67.20;;;;;;5033696;28;20112;-43
2021/07/02 01:14:08;;;;;;;4.60;3.00;;;19.90;67.30;;;;;;5033594;28;20070;-43
2021/07/02 01:16:36;;;;;;;3.50;2.70;;;19.90;67.20;;;;;;5033572;28;20465;-42
2021/07/02 01:19:02;;;;;;;3.25;2.95;;;19.90;67.30;;;;;;5033314;28;20057;-43
2021/07/02 01:21:27;;;;;;;3.33;3.03;;;19.80;67.20;;;;;;5033526;28;20099;-43
2021/07/02 01:23:53;;;;;;;3.65;3.00;;;20.00;67.20;;;;;;5033485;28;20532;-43
2021/07/02 01:26:19;;;;;;;3.42;2.60;;;19.90;67.30;;;;;;5033314;28;20038;-42
2021/07/02 01:28:45;;;;;;;3.55;3.15;;;19.80;67.20;;;;;;5033338;28;20053;-43
2021/07/02 01:31:11;;;;;;;4.15;2.92;;;19.90;67.30;;;;;;5033367;28;20064;-43
2021/07/02 01:33:36;;;;;;;4.57;2.88;;;19.80;67.30;;;;;;5033191;28;20465;-43
2021/07/02 01:36:10;;;;;;;4.45;3.17;;;19.70;67.20;;;;;;5033294;28;20025;-43
2021/07/02 01:38:36;;;;;;;3.75;2.80;;;19.80;67.30;;;;;;5033097;28;20029;-42
2021/07/02 01:41:02;;;;;;;3.45;2.85;;;19.80;67.20;;;;;;5032825;28;20029;-42
2021/07/02 01:43:28;;;;;;;3.40;2.75;;;19.80;67.20;;;;;;5033094;28;20096;-43
2021/07/02 01:45:54;;;;;;;5.32;3.30;;;19.80;67.20;;;;;;5032699;28;20580;-43
2021/07/02 01:48:20;;;;;;;3.95;3.08;;;19.70;67.20;;;;;;5033129;28;20079;-43
2021/07/02 01:50:46;;;;;;;4.75;3.05;;;19.80;67.20;;;;;;5032984;28;20029;-43
2021/07/02 01:53:11;;;;;;;4.03;2.92;;;19.70;67.20;;;;;;5033067;28;20108;-43
2021/07/02 01:55:37;;;;;;;5.85;3.35;;;19.80;67.20;;;;;;5032762;28;20033;-43
2021/07/02 01:58:02;;;;;;;2.97;2.65;;;19.80;67.30;;;;;;5032896;28;20075;-43
2021/07/02 02:00:28;;;;;;;3.08;2.60;;;19.80;67.30;;;;;;5032604;28;20472;-43
2021/07/02 02:02:54;;;;;;;3.30;3.00;;;19.80;67.30;;;;;;5032475;28;20040;-42
2021/07/02 02:05:19;;;;;;;3.90;2.78;;;19.80;67.30;;;;;;5032266;28;20052;-43
2021/07/02 02:07:45;;;;;;;3.15;2.30;;;19.80;67.30;;;;;;5032733;28;20028;-42
2021/07/02 02:10:11;;;;;;;3.35;2.63;;;19.80;67.20;;;;;;5032810;28;20029;-42
2021/07/02 02:12:37;;;;;;;2.78;2.58;;;19.80;67.30;;;;;;5032751;28;20018;-43
2021/07/02 02:15:04;;;;;;;4.50;2.42;;;19.80;67.30;;;;;;5031784;28;20030;-43
2021/07/02 02:17:30;;;;;;;2.42;2.22;;;19.80;67.20;;;;;;5032665;28;20017;-43
2021/07/02 02:19:56;;;;;;;4.25;2.65;;;19.80;67.20;;;;;;5032402;28;20064;-42
2021/07/02 02:22:21;;;;;;;3.70;3.22;;;20.00;67.40;;;;;;5032650;28;20017;-43
2021/07/02 02:24:47;;;;;;;4.82;2.70;;;19.80;67.30;;;;;;5032574;28;20104;-43
2021/07/02 02:27:13;;;;;;;4.82;2.85;;;19.50;67.20;;;;;;5032369;28;20017;-43
2021/07/02 02:29:38;;;;;;;3.33;2.67;;;19.80;67.30;;;;;;5032253;28;20025;-43
2021/07/02 02:32:04;;;;;;;4.82;2.65;;;19.80;67.30;;;;;;5032313;28;20029;-43
2021/07/02 02:34:30;;;;;;;4.53;2.90;;;19.80;67.20;;;;;;5032600;28;20116;-43
2021/07/02 02:36:56;;;;;;;4.55;3.03;;;19.80;67.30;;;;;;5032242;28;20060;-43
2021/07/02 02:39:21;;;;;;;3.60;2.88;;;19.80;67.20;;;;;;5032501;28;20030;-42
2021/07/02 02:41:47;;;;;;;3.78;3.10;;;19.80;67.20;;;;;;5032423;28;20017;-43
2021/07/02 02:44:13;;;;;;;4.00;2.55;;;19.80;67.30;;;;;;5032462;28;20030;-42
2021/07/02 02:46:38;;;;;;;3.03;2.65;;;19.80;67.30;;;;;;5032392;28;20376;-43
2021/07/02 02:49:04;;;;;;;3.30;2.58;;;19.90;67.50;;;;;;5032433;28;20017;-42
2021/07/02 02:51:30;;;;;;;4.00;2.97;;;19.80;67.40;;;;;;5032546;28;20029;-42
2021/07/02 02:53:55;;;;;;;3.10;2.67;;;19.80;67.40;;;;;;5032267;28;20025;-44
2021/07/02 02:56:21;;;;;;;2.80;2.60;;;19.80;67.40;;;;;;5032535;28;20025;-43
2021/07/02 02:58:47;;;;;;;3.22;2.63;;;19.80;67.40;;;;;;5032462;28;20080;-42
2021/07/02 03:01:12;;;;;;;3.70;3.10;;;19.70;67.40;;;;;;5032510;28;20013;-43
2021/07/02 03:03:38;;;;;;;3.65;2.83;;;19.80;67.40;;;;;;5032188;28;20033;-42
2021/07/02 03:06:04;;;;;;;4.10;3.10;;;19.80;67.30;;;;;;5031847;28;20077;-42
2021/07/02 03:08:30;;;;;;;2.55;2.35;;;19.70;67.20;;;;;;5032340;28;20101;-43
2021/07/02 03:10:55;;;;;;;2.47;2.28;;;19.80;67.30;;;;;;5032191;28;20095;-43
2021/07/02 03:13:21;;;;;;;3.15;2.60;;;19.80;67.30;;;;;;5032327;28;20017;-43
2021/07/02 03:15:47;;;;;;;2.95;2.40;;;19.80;67.20;;;;;;5032431;28;20038;-43
2021/07/02 03:18:12;;;;;;;2.92;2.58;;;19.80;67.30;;;;;;5032462;28;20373;-43
2021/07/02 03:20:38;;;;;;;3.03;2.30;;;19.80;67.30;;;;;;5032362;28;20071;-43
2021/07/02 03:23:04;;;;;;;3.47;2.65;;;19.80;67.40;;;;;;5032074;28;20025;-43
2021/07/02 03:25:30;;;;;;;4.20;2.50;;;19.80;67.40;;;;;;5032266;28;20030;-43
2021/07/02 03:27:56;;;;;;;2.83;2.33;;;19.80;67.50;;;;;;5035643;28;20026;-43
2021/07/02 03:30:21;;;;;;;3.03;2.40;;;19.70;67.50;;;;;;5035874;28;20113;-43
2021/07/02 03:32:47;;;;;;;3.45;2.60;;;19.70;67.40;;;;;;5035588;28;20083;-43
2021/07/02 03:35:13;;;;;;;2.78;2.40;;;19.80;67.50;;;;;;5035757;28;20088;-45
2021/07/02 03:37:39;;;;;;;3.17;2.70;;;19.70;67.40;;;;;;5035658;28;20021;-44
2021/07/02 03:40:08;;;;;;;4.07;2.63;;;19.80;67.50;;;;;;5035940;28;20373;-45
2021/07/02 03:42:34;;;;;;;3.13;2.80;;;19.70;67.40;;;;;;5035239;28;20061;-43
2021/07/02 03:44:59;;;;;;;3.50;2.50;;;19.60;67.30;;;;;;5035237;28;20072;-43
2021/07/02 03:47:25;;;;;;;3.42;2.50;;;19.80;67.50;;;;;;5035514;28;20025;-43
2021/07/02 03:49:50;;;;;;;3.60;2.95;;;19.50;68.00;;;;;;5035347;28;20037;-45
2021/07/02 03:52:16;;;;;;;2.67;2.35;;;19.30;67.20;;;;;;5035462;28;20060;-43
2021/07/02 03:54:42;;;;;;;3.35;2.70;;;19.70;67.40;;;;;;5035016;28;20530;-44
2021/07/02 03:57:11;;;;;;;3.78;2.90;;;19.70;67.40;;;;;;5034911;28;20025;-44
2021/07/02 03:59:37;;;;;;;3.45;2.58;;;19.60;67.40;;;;;;5035410;28;20025;-45
2021/07/02 04:02:03;;;;;;;3.25;2.67;;;19.70;67.40;;;;;;5035205;28;20491;-43
2021/07/02 04:04:29;;;;;;;4.05;2.25;;;19.70;67.50;;;;;;5034865;28;20046;-45
2021/07/02 04:06:54;;;;;;;4.47;2.90;;;19.70;67.40;;;;;;5034848;28;20037;-44
2021/07/02 04:09:20;;;;;;;3.13;2.83;;;19.70;67.50;;;;;;5034901;28;20017;-42
2021/07/02 04:11:46;;;;;;;4.88;2.83;;;19.70;67.50;;;;;;5035050;28;20025;-43
2021/07/02 04:14:11;;;;;;;3.05;2.75;;;19.70;67.50;;;;;;5034718;28;20017;-43
2021/07/02 04:16:37;;;;;;;3.05;2.83;;;19.70;67.40;;;;;;5034871;28;20021;-43
2021/07/02 04:19:02;;;;;;;2.50;2.30;;;19.70;67.50;;;;;;5034878;28;20512;-42
2021/07/02 04:21:28;;;;;;;2.90;2.70;;;19.70;67.50;;;;;;5034670;28;20380;-43
2021/07/02 04:23:54;;;;;;;3.70;2.70;;;19.40;67.30;;;;;;5034798;28;20040;-43
2021/07/02 04:26:19;;;;;;;3.47;2.55;;;19.70;67.40;;;;;;5034407;28;20531;-43
2021/07/02 04:28:45;;;;;;;3.08;2.40;;;19.70;67.40;;;;;;5034395;28;20275;-43
2021/07/02 04:31:11;;;;;;;2.90;2.45;;;19.70;67.50;;;;;;5034584;28;20029;-44
2021/07/02 04:33:36;;;;;;;3.90;2.83;;;19.70;67.50;;;;;;5034567;28;20433;-44
2021/07/02 04:36:02;;;;;;;3.85;3.03;;;19.70;67.50;;;;;;5034505;28;20029;-43
2021/07/02 04:38:28;;;;;;;2.97;2.50;;;19.70;67.50;;;;;;5033162;28;20018;-43
2021/07/02 04:40:54;;;;;;;3.00;2.40;;;19.70;67.60;;;;;;5034123;28;20040;-43
2021/07/02 04:43:19;;;;;;;3.30;2.67;;;19.70;67.60;;;;;;5034412;28;20536;-43
2021/07/02 04:45:45;;;;;;;4.88;3.00;;;19.70;67.60;;;;;;5034340;28;20120;-42
2021/07/02 04:48:10;;;;;;;2.75;2.45;;;19.70;67.60;;;;;;5034255;28;20262;-42
2021/07/02 04:50:36;;;;;;;3.20;2.60;;;19.70;67.60;;;;;;5034275;28;20030;-44
2021/07/02 04:53:01;;;;;;;4.18;2.50;;;19.70;67.60;;;;;;5034180;28;20435;-43
2021/07/02 04:55:27;;;;;;;3.33;3.03;;;19.70;67.60;;;;;;5033915;28;20029;-43
2021/07/02 04:57:53;;;;;;;3.03;2.72;;;19.70;67.60;;;;;;5033799;28;20018;-43
2021/07/02 05:00:19;;;;;;;3.38;2.60;;;19.70;67.60;;;;;;5033800;28;20152;-43
2021/07/02 05:02:45;;;;;;;4.57;2.80;;;19.90;67.80;;;;;;5033701;28;20105;-42
2021/07/02 05:05:11;;;;;;;2.63;2.40;;;20.10;67.90;;;;;;5033646;28;20037;-42
2021/07/02 05:07:38;;;;;;;3.35;2.65;;;19.70;67.10;;;;;;5033549;28;20132;-41
2021/07/02 05:10:05;;;;;;;3.15;2.75;;;19.60;67.60;;;;;;5033847;28;20101;-42
2021/07/02 05:12:32;;;;;;;3.63;2.70;;;19.70;67.60;;;;;;5033688;28;20040;-42
2021/07/02 05:14:59;;;;;;;3.75;3.15;;;19.70;67.60;;;;;;5033559;28;20041;-43
2021/07/02 05:17:25;;;;;;;3.20;2.80;;;19.70;67.70;;;;;;5033444;28;20534;-43
2021/07/02 05:19:51;;;;;;;2.78;2.40;;;19.70;67.80;;;;;;5033640;28;20036;-42
2021/07/02 05:22:18;;;;;;;6.18;2.88;;;19.70;67.40;;;;;;5033379;28;20018;-42
2021/07/02 05:24:45;;;;;;;5.57;3.40;;;19.80;67.60;;;;;;5033619;28;20428;-42
2021/07/02 05:27:10;;;;;;;3.22;2.80;;;19.80;67.50;;;;;;5031849;28;20128;-42
2021/07/02 05:29:36;;;;;;;4.70;2.80;;;19.80;67.60;;;;;;5032031;28;20044;-43
2021/07/02 05:32:02;;;;;;;4.65;2.70;;;19.80;67.50;;;;;;5033410;28;20029;-44
2021/07/02 05:34:27;;;;;;;5.18;3.35;;;19.80;67.60;;;;;;5033238;28;20019;-44
2021/07/02 05:36:53;;;;;;;6.47;3.08;;;19.80;67.70;;;;;;5033076;28;20064;-42
2021/07/02 05:39:19;;;;;;;5.00;3.30;;;19.80;67.80;;;;;;5033172;28;20029;-42
2021/07/02 05:41:44;;;;;;;3.90;3.45;;;19.80;67.90;;;;;;5033054;28;20026;-44
2021/07/02 05:44:10;;;;;;;5.00;3.20;;;19.80;67.60;;;;;;5033217;28;20025;-44
2021/07/02 05:46:35;;;;;;;5.82;2.80;;;19.80;67.50;;;;;;5032835;28;20384;-43
2021/07/02 05:49:03;;;;;;;6.63;2.95;;;20.00;67.50;;;;;;5032594;28;20026;-43
2021/07/02 05:51:29;;;;;;;4.97;3.22;;;19.90;67.80;;;;;;5032728;28;20033;-43
2021/07/02 05:53:54;;;;;;;6.97;3.28;;;19.90;67.80;;;;;;5033032;28;20017;-42
2021/07/02 05:56:27;;;;;;;3.53;3.20;;;19.90;68.00;;;;;;5032929;28;20025;-43
2021/07/02 05:58:52;;;;;;;4.55;2.90;;;19.80;68.00;;;;;;5032947;28;20379;-43
2021/07/02 06:01:18;;;;;;;6.57;3.25;;;19.80;68.10;;;;;;5032523;28;20021;-43
2021/07/02 06:03:43;;;;;;;4.97;3.33;;;19.80;68.20;;;;;;5032384;28;20021;-43
2021/07/02 06:06:09;;;;;;;4.70;2.88;;;19.60;86.10;;;;;;5032625;28;20113;-43
2021/07/02 06:08:34;;;;;;;3.83;3.00;;;19.80;68.50;;;;;;5032745;28;20117;-43
2021/07/02 06:11:01;;;;;;;7.18;2.97;;;19.80;68.60;;;;;;5032389;28;20056;-42
2021/07/02 06:13:27;;;;;;;5.30;3.28;;;19.80;68.70;;;;;;5032489;28;20017;-43
2021/07/02 06:15:52;;;;;;;7.72;3.22;;;19.70;68.70;;;;;;5032704;28;20032;-43
2021/07/02 06:18:18;;;;;;;4.10;3.17;;;19.70;68.70;;;;;;5032328;28;20108;-43
2021/07/02 06:20:43;;;;;;;3.63;2.60;;;19.70;68.70;;;;;;5032282;28;20021;-42
2021/07/02 06:23:09;;;;;;;4.53;2.83;;;19.70;68.80;;;;;;5032407;28;20041;-43
2021/07/02 06:25:34;;;;;;;6.03;3.28;;;19.70;68.30;;;;;;5032437;28;20029;-43
2021/07/02 06:28:00;;;;;;;5.05;3.50;;;19.80;68.00;;;;;;5032226;28;20052;-43
2021/07/02 06:30:26;;;;;;;4.10;3.28;;;19.90;68.00;;;;;;5032656;28;20057;-43
2021/07/02 06:32:52;;;;;;;7.63;3.30;;;19.70;67.60;;;;;;5032580;28;20029;-43
2021/07/02 06:35:17;;;;;;;5.78;3.00;;;19.90;67.60;;;;;;5032602;28;20026;-43
2021/07/02 06:37:48;;;;;;;4.45;2.53;;;19.90;67.60;;;;;;5032388;28;20370;-43
2021/07/02 06:40:14;;;;;;;4.38;2.85;;;19.90;67.40;;;;;;5032574;28;20040;-43
2021/07/02 06:42:40;;;;;;;6.28;3.20;;;19.90;67.20;;;;;;5031181;28;20464;-44
2021/07/02 06:45:06;;;;;;;5.50;3.20;;;20.00;67.30;;;;;;5032255;28;20017;-43
2021/07/02 06:47:31;;;;;;;6.10;3.63;;;20.00;67.20;;;;;;5032244;28;20392;-43
2021/07/02 06:49:57;;;;;;;4.18;2.90;;;20.00;67.30;;;;;;5032183;28;20031;-43
2021/07/02 06:52:22;;;;;;;5.18;3.17;;;20.00;67.00;;;;;;5032433;28;20036;-43
2021/07/02 06:54:48;;;;;;;7.72;3.40;;;20.00;67.00;;;;;;5032312;28;20026;-43
2021/07/02 06:57:15;;;;;;;4.40;3.50;;;20.00;67.10;;;;;;5032335;28;20087;-44
2021/07/02 06:59:41;;;;;;;3.78;2.83;;;20.00;67.00;;;;;;5032374;28;20408;-44
2021/07/02 07:02:11;;;;;;;5.38;3.75;;;20.00;67.10;;;;;;5034640;28;20028;-43
2021/07/02 07:04:37;;;;;;;5.07;3.55;;;20.00;67.00;;;;;;5035840;28;20103;-43
2021/07/02 07:07:12;;;;;;;4.15;3.42;;;20.00;67.10;;;;;;5035751;28;20025;-42
2021/07/02 07:09:38;;;;;;;5.95;3.13;;;20.00;67.00;;;;;;5035848;28;20037;-43
2021/07/02 07:12:05;;;;;;;4.68;3.45;;;19.80;67.00;;;;;;5036079;28;20112;-43
2021/07/02 07:14:32;;;;;;;5.60;3.25;;;20.00;67.10;;;;;;5036056;28;20151;-44
2021/07/02 07:16:58;;;;;;;3.30;2.90;;;20.00;67.00;;;;;;5035653;28;20488;-43
2021/07/02 07:19:27;;;;;;;3.33;3.03;;;20.00;67.00;;;;;;5035823;28;20033;-41
2021/07/02 07:21:53;;;;;;;5.70;3.28;;;20.00;66.90;;;;;;5035862;28;20032;-42
2021/07/02 07:24:18;;;;;;;5.55;3.42;;;20.00;67.00;;;;;;5035885;28;20022;-43
2021/07/02 07:26:44;;;;;;;3.60;3.03;;;19.90;66.90;;;;;;5035432;28;20056;-44
2021/07/02 07:29:09;;;;;;;5.82;2.97;;;20.00;66.90;;;;;;5035511;28;20108;-44
2021/07/02 07:31:35;;;;;;;4.90;3.30;;;20.00;66.90;;;;;;5035236;28;20022;-42
2021/07/02 07:34:02;;;;;;;4.57;3.83;;;20.00;66.90;;;;;;5035480;28;20384;-43
2021/07/02 07:36:29;;;;;;;3.78;3.03;;;19.80;67.00;;;;;;5035655;28;20026;-44
2021/07/02 07:38:55;;;;;;;5.78;3.40;;;19.80;66.60;;;;;;5035651;28;20033;-44
2021/07/02 07:41:23;;;;;;;3.58;3.20;;;20.00;66.90;;;;;;5035428;28;20037;-44
2021/07/02 07:43:48;;;;;;;5.05;3.08;;;20.00;66.90;;;;;;5035419;28;20021;-43
2021/07/02 07:46:14;;;;;;;6.07;3.65;;;20.00;66.90;;;;;;5034972;28;20033;-43
2021/07/02 07:48:39;;;;;;;4.70;3.30;;;20.00;66.90;;;;;;5035014;28;20116;-43
2021/07/02 07:53:49;;;;;;;3.47;2.85;;;20.00;67.00;;;;;;5035211;28;20033;-44
2021/07/02 07:56:15;;;;;;;3.95;2.97;;;20.00;67.00;;;;;;5035302;28;20026;-43
2021/07/02 07:58:41;;;;;;;3.50;3.20;;;20.00;67.00;;;;;;5035035;28;20018;-43
2021/07/02 08:01:06;;;;;;;4.88;3.28;;;19.90;66.90;;;;;;5035209;28;20036;-43
2021/07/02 08:03:32;;;;;;;7.20;3.05;;;20.00;67.00;;;;;;5034843;28;20168;-43
2021/07/02 08:05:57;;;;;;;4.07;2.65;;;20.00;67.00;;;;;;5034543;28;20048;-44
2021/07/02 08:08:23;;;;;;;5.18;3.55;;;20.00;67.00;;;;;;5034789;28;20063;-43
2021/07/02 08:10:50;;;;;;;4.15;2.90;;;20.00;67.10;;;;;;5034988;28;20040;-43
2021/07/02 08:13:15;;;;;;;5.80;3.15;;;20.00;67.20;;;;;;5034603;28;20022;-43
2021/07/02 08:15:41;;;;;;;3.85;3.00;;;20.00;67.00;;;;;;5034650;28;20032;-44
2021/07/02 08:18:07;;;;;;;4.75;3.28;;;20.00;67.20;;;;;;5034917;28;20464;-43
2021/07/02 08:20:32;;;;;;;6.20;2.80;;;20.00;67.00;;;;;;5035123;28;20017;-43
2021/07/02 08:22:58;;;;;;;3.78;2.95;;;20.00;67.00;;;;;;5034780;28;20439;-43
2021/07/02 08:25:24;;;;;;;3.22;2.90;;;20.00;67.00;;;;;;5034690;28;20076;-43
2021/07/02 08:30:33;;;;;;;3.95;2.75;;;20.00;67.00;;;;;;5034716;28;20060;-43
2021/07/02 08:32:59;;;;;;;4.00;3.13;;;20.00;67.10;;;;;;5034631;28;20018;-43
2021/07/02 08:35:24;;;;;;;4.72;2.83;;;20.00;67.20;;;;;;5034283;28;20030;-44
2021/07/02 08:37:52;;;;;;;4.05;2.72;;;20.00;67.00;;;;;;5034545;28;20096;-44
2021/07/02 08:40:19;;;;;;;7.30;3.15;;;20.00;67.00;;;;;;5034287;28;20045;-43
2021/07/02 08:42:45;;;;;;;3.28;2.83;;;20.00;67.00;;;;;;5034236;28;20349;-43
2021/07/02 08:45:11;;;;;;;4.47;2.55;;;20.10;84.60;;;;;;5033820;28;20017;-43
2021/07/02 08:47:37;;;;;;;4.78;3.08;;;20.00;67.10;;;;;;5033791;28;20056;-44
2021/07/02 08:50:05;;;;;;;2.88;2.50;;;20.00;67.00;;;;;;5033920;28;20029;-43
2021/07/02 08:52:31;;;;;;;3.00;2.70;;;20.00;67.80;;;;;;5034049;28;20036;-43
2021/07/02 08:54:57;;;;;;;5.07;2.95;;;20.00;67.10;;;;;;5033932;28;20014;-43
2021/07/02 08:57:23;;;;;;;4.60;2.97;;;20.00;67.10;;;;;;5033996;28;20366;-44
2021/07/02 08:59:48;;;;;;;5.15;2.58;;;20.20;67.10;;;;;;5033879;28;20025;-43
2021/07/02 09:02:28;;;;;;;2.95;2.65;;;20.00;67.00;;;;;;5033897;28;20030;-43
2021/07/02 09:04:54;;;;;;;;;;;20.00;67.00;;;;;;5033842;28;20056;-43
2021/07/02 09:07:19;;;;;;;3.10;2.33;;;20.00;67.10;;;;;;5033450;28;20292;-43
2021/07/02 09:09:59;;;;;;;4.55;2.70;;;20.00;67.20;;;;;;5033735;28;20013;-44
2021/07/02 09:12:28;;;;;;;3.03;2.70;;;20.00;67.20;;;;;;5033630;28;20022;-43
2021/07/02 09:15:00;;;;;;;3.13;2.72;;;20.00;67.20;;;;;;5033516;28;20046;-43
2021/07/02 09:17:26;;;;;;;3.30;2.70;;;20.00;67.20;;;;;;5033634;28;20017;-43
2021/07/02 09:20:13;;;;;;;3.40;2.78;;;20.00;67.20;;;;;;5033526;28;20030;-43
2021/07/02 09:22:57;;;;;;;2.50;2.30;;;20.00;67.20;;;;;;5033249;28;20096;-43
2021/07/02 09:25:29;;;;;;;3.28;2.60;;;20.00;67.20;;;;;;5032929;28;20099;-43
2021/07/02 09:28:01;;;;;;;2.85;2.28;;;19.80;67.10;;;;;;5033210;28;20029;-43
2021/07/02 09:30:30;;;;;;;3.10;2.80;;;20.00;67.30;;;;;;5033397;28;20416;-43
2021/07/02 09:33:08;;;;;;;3.03;2.60;;;20.00;67.30;;;;;;5033065;28;20017;-43
2021/07/02 09:35:56;;;;;;;3.10;2.50;;;20.00;67.30;;;;;;5033220;28;20029;-43
2021/07/02 09:38:36;;;;;;;2.33;2.13;;;20.00;67.40;;;;;;5033104;28;20435;-43
2021/07/02 09:41:02;;;;;;;3.17;2.50;;;20.00;67.30;;;;;;5033187;28;20025;-43
2021/07/02 09:43:32;;;;;;;3.40;2.70;;;20.00;67.30;;;;;;5032886;28;20025;-43
2021/07/02 09:46:04;;;;;;;2.57;2.37;;;20.00;67.30;;;;;;5033138;28;20040;-43
2021/07/02 09:48:32;;;;;;;2.67;2.25;;;20.00;67.40;;;;;;5033003;28;20030;-44
2021/07/02 09:51:09;;;;;;;2.90;2.58;;;20.00;67.40;;;;;;5032780;28;20464;-42
2021/07/02 09:53:36;;;;;;;2.50;2.30;;;20.00;67.40;;;;;;5032926;28;20156;-42
2021/07/02 09:56:04;;;;;;;3.10;2.60;;;20.00;67.40;;;;;;5032755;28;20468;-43
2021/07/02 09:58:39;;;;;;;2.80;2.50;;;20.00;67.40;;;;;;5032911;28;20033;-43
2021/07/02 10:01:06;;;;;;;3.45;2.47;;;20.00;67.40;;;;;;5033201;28;20025;-44
2021/07/02 10:03:37;;;;;;;3.15;2.63;;;20.00;67.40;;;;;;5032888;28;20032;-44
2021/07/02 10:06:05;;;;;;;3.72;2.78;;;20.00;67.40;;;;;;5031088;28;20064;-43
2021/07/02 10:08:35;;;;;;;3.72;2.60;;;20.00;67.50;;;;;;5032885;28;20084;-42
2021/07/02 10:11:03;;;;;;;2.10;1.90;;;20.00;67.50;;;;;;5032834;28;20024;-43
2021/07/02 10:13:34;;;;;;;3.15;2.53;;;20.00;67.40;;;;;;5032788;28;20029;-43
2021/07/02 10:16:04;;;;;;;3.47;2.47;;;20.00;67.40;;;;;;5032870;28;20427;-43
2021/07/02 10:18:31;;;;;;;2.58;2.38;;;20.00;67.50;;;;;;5032902;28;20044;-42
2021/07/02 10:21:00;;;;;;;3.03;2.28;;;20.00;67.40;;;;;;5032756;28;20017;-42
2021/07/02 10:23:56;;;;;;;3.60;2.58;;;20.00;67.30;;;;;;5032566;28;20029;-43
2021/07/02 10:26:25;;;;;;;2.60;2.40;;;20.00;67.50;;;;;;5019435;28;20132;-43
2021/07/02 10:28:51;;;;;;;5.47;2.53;;;20.00;67.70;;;;;;5032432;28;20028;-42
2021/07/02 10:31:18;;;;;;;3.28;2.60;;;20.00;67.90;;;;;;5032634;28;20029;-43
2021/07/02 10:33:50;;;;;;;2.70;2.50;;;20.00;68.00;;;;;;5032613;28;20021;-42
2021/07/02 10:36:17;;;;;;;3.28;2.88;;;20.20;68.20;;;;;;5033491;28;20025;-43
2021/07/02 10:38:48;;;;;;;2.65;2.45;;;20.00;68.20;;;;;;5036184;28;20457;-43
2021/07/02 10:41:21;;;;;;;2.90;2.42;;;19.80;68.10;;;;;;5036472;28;20025;-43
2021/07/02 10:44:03;;;;;;;2.90;2.70;;;19.90;68.10;;;;;;5036603;28;20052;-43
2021/07/02 10:46:33;;;;;;;3.95;2.47;;;19.90;68.10;;;;;;5036395;28;20037;-42
2021/07/02 10:49:04;;;;;;;2.42;2.03;;;19.90;68.10;;;;;;5035050;28;20476;-43
2021/07/02 10:51:36;;;;;;;4.97;2.28;;;20.00;67.90;;;;;;5036378;28;20029;-44
2021/07/02 10:54:18;;;;;;;2.95;2.33;;;20.00;67.80;;;;;;5036439;28;20026;-42
2021/07/02 10:56:52;;;;;;;3.70;2.75;;;20.00;67.80;;;;;;5035971;28;20121;-42
2021/07/02 10:59:18;;;;;;;4.47;2.63;;;20.00;67.90;;;;;;5036086;28;20018;-42
2021/07/02 11:02:06;;;;;;;4.03;2.63;;;20.00;68.50;;;;;;5036020;28;20078;-43
2021/07/02 11:04:33;;;;;;;5.50;2.70;;;20.00;68.70;;;;;;5035940;28;20136;-43
2021/07/02 11:07:00;;;;;;;5.22;3.20;;;19.90;68.70;;;;;;5036085;28;20034;-42
2021/07/02 11:09:54;;;;;;;5.22;2.80;;;19.80;68.90;;;;;;5036206;28;20079;-44
2021/07/02 11:12:30;;;;;;;4.55;2.55;;;19.90;68.80;;;;;;5035801;28;20464;-42
2021/07/02 11:14:57;;;;;;;5.28;3.10;;;19.90;68.90;;;;;;5035830;28;20456;-42
2021/07/02 11:17:34;;;;;;;3.67;2.90;;;19.90;69.00;;;;;;5036024;28;20036;-42
2021/07/02 11:20:09;;;;;;;3.97;3.20;;;19.90;69.00;;;;;;5035749;28;20353;-42
2021/07/02 11:22:59;;;;;;;4.22;3.05;;;19.90;69.10;;;;;;5035847;28;20034;-42
2021/07/02 11:27:55;;;;;;;3.22;2.80;;;20.10;69.10;;;;;;5035880;28;20128;-42
2021/07/02 11:30:21;;;;;;;3.38;2.90;;;20.00;69.00;;;;;;5035526;28;20021;-42
2021/07/02 11:32:48;;;;;;;3.55;3.22;;;19.80;68.80;;;;;;5035394;28;20037;-42
2021/07/02 11:35:24;;;;;;;3.78;2.70;;;19.90;68.90;;;;;;5035649;28;20423;-42
2021/07/02 11:37:59;;;;;;;4.55;3.10;;;19.90;68.90;;;;;;5035491;28;20053;-42
2021/07/02 11:40:35;;;;;;;3.00;2.80;;;20.30;69.10;;;;;;5035640;28;20053;-43
2021/07/02 11:43:03;;;;;;;4.32;3.17;;;19.90;68.90;;;;;;5035322;28;20571;-42
2021/07/02 11:45:48;;;;;;;3.50;2.97;;;19.90;69.00;;;;;;5035103;28;20025;-42
2021/07/02 11:48:20;;;;;;;6.93;2.70;;;20.00;68.80;;;;;;5034885;28;20072;-43
2021/07/02 11:50:50;;;;;;;2.85;2.55;;;20.00;68.70;;;;;;5035308;28;20049;-42
2021/07/02 11:53:39;;;;;;;2.80;2.55;;;20.00;68.60;;;;;;5035310;28;20025;-42
2021/07/02 11:56:09;;;;;;;2.67;2.47;;;20.00;68.50;;;;;;5035425;28;20028;-43
2021/07/02 11:58:40;;;;;;;2.83;2.60;;;20.00;68.60;;;;;;5035402;28;20137;-43
2021/07/02 12:01:11;;;;;;;3.35;2.53;;;20.00;68.40;;;;;;5035300;28;20447;-42
2021/07/02 12:03:42;;;;;;;2.78;2.38;;;20.10;68.40;;;;;;5035276;28;20017;-42
2021/07/02 12:06:08;;;;;;;3.15;2.85;;;20.10;68.30;;;;;;5033453;28;20124;-42
2021/07/02 12:08:34;;;;;;;3.30;3.00;;;20.20;68.40;;;;;;5035147;28;20057;-43
2021/07/02 12:11:01;;;;;;;3.17;2.60;;;20.10;68.30;;;;;;5035051;28;20029;-43
2021/07/02 12:13:33;;;;;;;3.20;2.80;;;20.20;68.30;;;;;;5034835;28;20053;-42
2021/07/02 12:16:01;;;;;;;4.70;2.70;;;20.20;68.30;;;;;;5035042;28;20388;-43
2021/07/02 12:18:27;;;;;;;3.58;2.58;;;20.20;68.20;;;;;;5034635;28;20049;-42
2021/07/02 12:21:11;;;;;;;3.97;2.65;;;20.20;68.20;;;;;;5034694;28;20053;-42
2021/07/02 12:23:42;;;;;;;4.18;2.67;;;20.30;68.30;;;;;;5034915;28;20033;-42
2021/07/02 12:26:17;;;;;;;2.83;2.58;;;20.30;68.40;;;;;;5034706;28;20060;-42
2021/07/02 12:29:02;;;;;;;2.45;2.25;;;20.30;68.40;;;;;;5034457;28;20362;-42
2021/07/02 12:31:38;;;;;;;2.78;2.05;;;20.20;68.30;;;;;;5034691;28;20021;-42
2021/07/02 12:34:06;;;;;;;2.85;2.47;;;20.30;68.40;;;;;;5034328;28;20030;-45
2021/07/02 12:36:34;;;;;;;2.88;2.58;;;20.30;68.40;;;;;;5034176;28;20018;-43
2021/07/02 12:39:20;;;;;;;3.10;2.80;;;20.40;68.50;;;;;;5034498;28;20026;-42
2021/07/02 12:41:47;;;;;;;2.65;2.45;;;20.30;68.40;;;;;;5033991;28;20029;-42
2021/07/02 12:44:17;;;;;;;2.50;2.30;;;20.40;68.40;;;;;;5034066;28;20567;-42
2021/07/02 12:46:43;;;;;;;2.63;2.38;;;20.60;68.60;;;;;;5034316;28;20091;-42
2021/07/02 12:49:25;;;;;;;2.78;2.40;;;20.40;68.40;;;;;;5034352;28;20022;-41
2021/07/02 12:57:17;;;;;;;2.85;2.60;;;20.50;68.40;;;;;;5034142;28;20030;-42
2021/07/02 12:59:45;;;;;;;3.00;2.38;;;20.50;68.40;;;;;;5033173;28;20029;-42
2021/07/02 13:02:11;;;;;;;2.72;2.50;;;20.50;68.40;;;;;;5033773;28;20014;-41
2021/07/02 13:04:43;;;;;;;3.28;2.63;;;20.60;87.30;;;;;;5033585;28;20056;-42
2021/07/02 13:07:10;;;;;;;3.22;2.92;;;20.50;68.40;;;;;;5033520;28;20399;-42
2021/07/02 13:09:36;;;;;;;4.93;2.33;;;20.50;68.40;;;;;;5033563;28;20100;-42
2021/07/02 13:12:15;;;;;;;2.20;1.98;;;20.20;68.20;;;;;;5033424;28;20121;-42
2021/07/02 13:14:44;;;;;;;2.50;2.30;;;20.50;68.40;;;;;;5033927;28;20049;-42